Time;durP1;ratioP1;P1;durP2;ratioP2;P2;SDS_P1;SDS_P2;PMS_P1;PMS_P2;Temp;Humidity;BMP_temperature;BMP_pressure;BME280_temperature;BME280_humidity;BME280_pressure;Samples;Min_cycle;Max_cycle;Signal;HPM_P1;HPM_P2
2021/10/11 00:01:04;;;;;;;55.80;24.00;;;;;;;0.73;71.32;101186.08;113000;1198;24048;-56
2021/10/11 00:03:35;;;;;;;54.40;25.80;;;;;;;0.69;71.07;101183.08;112983;1198;22505;-55
2021/10/11 00:06:06;;;;;;;52.80;22.60;;;;;;;0.68;71.15;101174.13;113000;1198;25024;-58
2021/10/11 00:08:38;;;;;;;52.90;23.70;;;;;;;0.65;71.04;101176.39;113155;1198;25215;-58
2021/10/11 00:11:09;;;;;;;58.70;25.80;;;;;;;0.61;71.14;101178.35;112976;1193;25146;-57
2021/10/11 00:13:39;;;;;;;55.20;25.10;;;;;;;0.60;71.03;101186.04;112936;1176;22470;-58
2021/10/11 00:16:12;;;;;;;59.20;26.70;;;;;;;0.60;71.17;101186.36;113017;1198;25338;-58
2021/10/11 00:18:42;;;;;;;61.60;25.00;;;;;;;0.59;71.18;101182.98;113127;1198;25112;-58
2021/10/11 00:21:15;;;;;;;58.60;25.60;;;;;;;0.59;71.21;101175.30;112986;1198;22440;-58
2021/10/11 00:23:48;;;;;;;59.10;26.30;;;;;;;0.56;71.18;101174.73;113200;1198;22434;-58
2021/10/11 00:26:20;;;;;;;56.40;26.40;;;;;;;0.52;71.18;101174.16;112984;1193;22433;-57
2021/10/11 00:28:50;;;;;;;58.00;24.50;;;;;;;0.47;71.22;101168.34;113036;1190;24062;-58
2021/10/11 00:31:22;;;;;;;58.10;25.10;;;;;;;0.43;71.29;101169.20;112947;1192;23007;-55
2021/10/11 00:33:53;;;;;;;61.70;26.50;;;;;;;0.38;71.26;101169.10;113153;1198;24083;-58
2021/10/11 00:36:23;;;;;;;55.30;24.90;;;;;;;0.36;71.44;101167.13;112979;1198;22439;-57
2021/10/11 00:38:54;;;;;;;63.00;30.20;;;;;;;0.36;71.42;101168.15;112996;1192;24161;-60
2021/10/11 00:41:28;;;;;;;60.20;27.00;;;;;;;0.35;71.60;101163.52;113231;1198;23135;-61
2021/10/11 00:43:59;;;;;;;68.10;27.80;;;;;;;0.34;71.48;101158.97;113178;1193;22430;-59
2021/10/11 00:46:30;;;;;;;61.60;27.20;;;;;;;0.33;71.44;101152.60;113178;1190;22756;-58
2021/10/11 00:49:01;;;;;;;53.00;25.10;;;;;;;0.30;71.49;101153.14;112982;1193;25116;-56
2021/10/11 00:51:32;;;;;;;60.40;24.40;;;;;;;0.27;71.53;101155.73;112949;1198;22469;-58
2021/10/11 00:54:03;;;;;;;59.80;26.60;;;;;;;0.23;71.42;101148.10;112978;1198;22437;-59
2021/10/11 00:56:35;;;;;;;53.50;25.30;;;;;;;0.21;71.60;101149.35;112983;1198;22513;-57
2021/10/11 00:59:06;;;;;;;62.10;25.80;;;;;;;0.17;71.50;101146.90;112949;1198;22468;-58
2021/10/11 01:01:36;;;;;;;62.10;25.00;;;;;;;0.15;71.53;101142.02;112969;1198;22604;-57
2021/10/11 01:04:08;;;;;;;55.60;26.50;;;;;;;0.11;71.49;101134.10;113066;1191;22461;-56
2021/10/11 01:06:42;;;;;;;59.60;25.90;;;;;;;0.09;71.58;101137.77;112980;1198;25207;-56
2021/10/11 01:09:16;;;;;;;54.60;25.40;;;;;;;0.06;71.55;101137.21;112921;1192;25140;-58
2021/10/11 01:11:49;;;;;;;59.60;26.00;;;;;;;0.03;71.77;101135.72;113251;1198;22413;-57
2021/10/11 01:14:21;;;;;;;52.30;23.50;;;;;;;0.04;71.82;101134.30;113104;1193;23039;-59
2021/10/11 01:16:52;;;;;;;59.50;26.70;;;;;;;0.05;71.91;101129.45;113113;1198;26502;-57
2021/10/11 01:19:23;;;;;;;54.60;26.30;;;;;;;0.03;71.84;101127.00;113126;1198;24061;-58
2021/10/11 01:21:54;;;;;;;56.70;26.70;;;;;;;-0.00;71.94;101118.21;113140;1192;25108;-58
2021/10/11 01:24:23;;;;;;;;;;;;;;;-0.01;71.95;101109.18;112996;1198;22997;-56
2021/10/11 01:26:54;;;;;;;58.50;25.90;;;;;;;-0.01;72.20;101102.91;112910;1198;22438;-58
2021/10/11 01:29:25;;;;;;;61.20;27.30;;;;;;;-0.03;72.38;101102.35;113019;1198;22500;-58
2021/10/11 01:31:56;;;;;;;66.40;27.80;;;;;;;-0.02;72.46;101100.70;112991;1198;22995;-58
2021/10/11 01:34:27;;;;;;;66.90;28.50;;;;;;;-0.00;72.53;101106.20;112997;1193;22418;-57
2021/10/11 01:36:59;;;;;;;69.00;27.70;;;;;;;-0.01;72.46;101116.48;112899;1198;26549;-56
2021/10/11 01:39:29;;;;;;;62.60;28.90;;;;;;;-0.02;72.26;101113.02;112859;1198;22441;-58
2021/10/11 01:42:01;;;;;;;;;;;;;;;-0.03;72.30;101104.62;112858;1198;22416;-56
2021/10/11 01:44:32;;;;;;;60.30;26.80;;;;;;;-0.06;72.27;101104.44;113121;1198;24087;-58
2021/10/11 01:47:04;;;;;;;60.80;27.80;;;;;;;-0.09;72.20;101100.45;112980;1198;22576;-57
2021/10/11 01:49:35;;;;;;;63.00;28.10;;;;;;;-0.09;72.25;101097.86;113068;1196;22509;-58
2021/10/11 01:52:06;;;;;;;60.30;29.30;;;;;;;-0.11;72.16;101095.41;113027;1192;23101;-58
2021/10/11 01:54:37;;;;;;;55.40;25.80;;;;;;;-0.14;72.00;101094.46;113003;1198;24205;-58
2021/10/11 01:57:08;;;;;;;60.50;27.90;;;;;;;-0.17;72.18;101093.05;112973;1190;22459;-57
2021/10/11 01:59:42;;;;;;;56.80;28.50;;;;;;;-0.20;72.03;101093.26;112938;1198;22585;-57
2021/10/11 02:02:13;;;;;;;64.70;27.00;;;;;;;-0.20;72.14;101092.32;112843;1192;25471;-57
2021/10/11 02:04:44;;;;;;;62.60;29.00;;;;;;;-0.19;72.61;101092.48;113000;1198;22623;-57
2021/10/11 02:07:15;;;;;;;64.00;28.90;;;;;;;-0.19;72.87;101084.96;112885;1198;22511;-56
2021/10/11 02:09:46;;;;;;;62.90;30.30;;;;;;;-0.21;73.02;101081.34;113044;1198;22445;-58
2021/10/11 02:12:17;;;;;;;68.00;28.90;;;;;;;-0.23;72.72;101071.14;112936;1198;24094;-58
2021/10/11 02:14:48;;;;;;;62.90;26.30;;;;;;;-0.28;72.53;101072.14;112882;1192;24040;-56
2021/10/11 02:17:19;;;;;;;57.50;26.30;;;;;;;-0.30;72.53;101066.33;113142;1198;25152;-56
2021/10/11 02:19:50;;;;;;;61.50;25.60;;;;;;;-0.32;72.53;101067.89;113173;1198;22470;-55
2021/10/11 02:22:21;;;;;;;60.10;26.20;;;;;;;-0.35;72.49;101065.85;112901;1198;25261;-58
2021/10/11 02:24:52;;;;;;;53.80;25.20;;;;;;;-0.38;72.47;101068.17;113035;1192;25744;-57
2021/10/11 02:27:24;;;;;;;56.80;24.70;;;;;;;-0.41;72.50;101064.16;112884;1198;24254;-55
2021/10/11 02:29:54;;;;;;;65.00;27.50;;;;;;;-0.42;72.52;101058.98;113024;1192;24085;-56
2021/10/11 02:32:25;;;;;;;58.90;26.60;;;;;;;-0.44;72.64;101055.85;112888;1198;25343;-54
2021/10/11 02:34:56;;;;;;;57.40;24.40;;;;;;;-0.45;72.59;101050.11;112892;1192;25312;-57
2021/10/11 02:37:29;;;;;;;58.20;25.10;;;;;;;-0.48;72.67;101047.52;112999;1198;26450;-56
2021/10/11 02:40:00;;;;;;;66.40;28.20;;;;;;;-0.50;72.76;101042.33;113081;1198;25332;-58
2021/10/11 02:42:32;;;;;;;65.10;28.60;;;;;;;-0.52;72.89;101044.84;112978;1198;22533;-58
2021/10/11 02:45:03;;;;;;;62.70;24.90;;;;;;;-0.51;73.04;101038.02;113048;1183;25329;-58
2021/10/11 02:47:34;;;;;;;50.40;24.10;;;;;;;-0.49;73.22;101038.11;112976;1198;25279;-57
2021/10/11 02:50:04;;;;;;;;;;;;;;;-0.47;73.35;101039.45;112984;1198;22420;-56
2021/10/11 02:52:35;;;;;;;55.50;22.30;;;;;;;-0.48;73.40;101040.63;113003;1190;22475;-57
2021/10/11 02:55:08;;;;;;;54.60;23.70;;;;;;;-0.47;73.40;101039.92;112922;1190;24051;-58
2021/10/11 02:57:38;;;;;;;51.50;23.30;;;;;;;-0.50;73.27;101031.68;112990;1192;22640;-57
2021/10/11 03:00:09;;;;;;;;;;;;;;;-0.52;73.16;101023.91;113033;1198;22415;-58
2021/10/11 03:02:39;;;;;;;48.40;22.30;;;;;;;-0.53;73.12;101021.87;112986;1198;22625;-57
2021/10/11 03:05:09;;;;;;;;;;;;;;;-0.56;73.20;101024.59;113072;1198;22724;-58
2021/10/11 03:07:40;;;;;;;51.70;21.40;;;;;;;-0.58;73.17;101020.60;113356;1198;22443;-58
2021/10/11 03:10:12;;;;;;;53.30;22.90;;;;;;;-0.59;73.18;101019.02;113257;1193;25369;-57
2021/10/11 03:12:42;;;;;;;50.80;22.10;;;;;;;-0.61;73.21;101024.34;113404;1192;26789;-58
2021/10/11 03:15:13;;;;;;;52.00;21.80;;;;;;;-0.61;73.25;101012.19;113107;1198;22575;-58
2021/10/11 03:17:44;;;;;;;53.20;22.30;;;;;;;-0.61;73.28;101003.49;113102;1192;22533;-58
2021/10/11 03:20:16;;;;;;;53.90;24.50;;;;;;;-0.61;73.36;100999.04;113095;1190;25740;-58
2021/10/11 03:22:47;;;;;;;51.40;22.60;;;;;;;-0.63;73.28;100995.96;113356;1198;22437;-55
2021/10/11 03:25:18;;;;;;;53.40;22.20;;;;;;;-0.65;73.40;100994.01;113061;1198;22551;-58
2021/10/11 03:27:50;;;;;;;45.10;22.00;;;;;;;-0.68;73.34;100995.94;113374;1198;25304;-56
2021/10/11 03:30:20;;;;;;;58.60;23.40;;;;;;;-0.71;73.58;101003.53;112975;1193;22895;-57
2021/10/11 03:32:50;;;;;;;;;;;;;;;-0.73;73.67;101006.81;112979;1198;24133;-57
2021/10/11 03:35:21;;;;;;;49.90;22.50;;;;;;;-0.75;73.74;101010.48;112983;1192;25311;-57
2021/10/11 03:37:53;;;;;;;57.10;24.50;;;;;;;-0.75;73.74;101012.67;113396;1198;25285;-55
2021/10/11 03:40:23;;;;;;;51.20;23.20;;;;;;;-0.76;73.74;101013.05;113035;1190;24083;-56
2021/10/11 03:42:52;;;;;;;;;;;;;;;-0.79;73.52;101012.34;113050;1198;25147;-59
2021/10/11 03:45:23;;;;;;;60.30;26.90;;;;;;;-0.81;73.32;101019.06;113114;1198;22522;-58
2021/10/11 03:47:52;;;;;;;;;;;;;;;-0.83;73.33;101016.31;113305;1198;24146;-58
2021/10/11 03:50:24;;;;;;;56.70;24.40;;;;;;;-0.86;73.36;101016.06;113013;1190;23734;-58
2021/10/11 03:52:55;;;;;;;58.60;24.20;;;;;;;-0.88;73.41;101018.80;113108;1198;24072;-58
2021/10/11 03:55:28;;;;;;;52.60;24.10;;;;;;;-0.90;73.57;101023.55;112988;1198;25325;-57
2021/10/11 03:57:59;;;;;;;66.80;25.60;;;;;;;-0.92;73.66;101017.89;112951;1198;25270;-58
2021/10/11 04:00:32;;;;;;;54.60;23.20;;;;;;;-0.93;73.59;101018.52;113014;1198;22452;-56
2021/10/11 04:03:05;;;;;;;61.70;25.90;;;;;;;-0.95;73.55;101028.91;113265;1198;22499;-55
2021/10/11 04:05:36;;;;;;;64.40;24.60;;;;;;;-0.97;73.55;101025.00;113270;1198;22491;-55
2021/10/11 04:08:11;;;;;;;49.80;21.80;;;;;;;-0.96;73.62;101023.20;112973;1192;22512;-55
2021/10/11 04:10:50;;;;;;;60.10;24.20;;;;;;;-0.97;73.92;101023.82;113091;1198;22588;-57
2021/10/11 04:13:22;;;;;;;54.20;22.10;;;;;;;-0.99;74.07;101024.76;113038;1198;22501;-58
2021/10/11 04:15:53;;;;;;;53.40;21.70;;;;;;;-1.01;74.07;101015.80;112980;1192;23132;-56
2021/10/11 04:18:24;;;;;;;51.10;21.70;;;;;;;-1.04;73.96;101006.48;112948;1177;24061;-58
2021/10/11 04:20:55;;;;;;;46.30;18.40;;;;;;;-1.05;73.87;100998.71;113034;1198;25401;-56
2021/10/11 04:23:28;;;;;;;46.40;20.90;;;;;;;-1.08;73.71;100998.39;112974;1192;24246;-57
2021/10/11 04:25:59;;;;;;;47.70;22.30;;;;;;;-1.12;73.77;101005.48;112998;1192;25360;-58
2021/10/11 04:28:30;;;;;;;49.70;21.30;;;;;;;-1.15;73.75;101004.53;112878;1198;22556;-55
2021/10/11 04:31:01;;;;;;;58.50;23.10;;;;;;;-1.16;73.81;101005.61;112871;1198;22483;-57
2021/10/11 04:33:32;;;;;;;69.00;31.80;;;;;;;-1.17;73.83;100998.80;113064;1193;22514;-55
2021/10/11 04:36:03;;;;;;;79.30;34.10;;;;;;;-1.19;73.78;100992.99;113009;1194;23018;-58
2021/10/11 04:38:34;;;;;;;86.40;40.20;;;;;;;-1.19;73.87;100993.77;112839;1198;23877;-56
2021/10/11 04:41:05;;;;;;;86.80;40.10;;;;;;;-1.19;73.78;100994.48;112857;1198;22516;-59
2021/10/11 04:43:36;;;;;;;85.90;40.70;;;;;;;-1.20;73.89;100992.12;113007;1192;24265;-55
2021/10/11 04:46:07;;;;;;;79.80;36.30;;;;;;;-1.20;73.89;100991.80;112999;1198;22597;-57
2021/10/11 04:48:38;;;;;;;76.10;33.90;;;;;;;-1.20;73.92;100985.23;112965;1198;22941;-57
2021/10/11 04:51:09;;;;;;;74.90;32.90;;;;;;;-1.22;73.86;100978.42;113105;1198;25349;-57
2021/10/11 04:53:40;;;;;;;83.00;34.80;;;;;;;-1.23;73.87;100976.30;113158;1198;22534;-55
2021/10/11 04:56:11;;;;;;;77.30;32.10;;;;;;;-1.25;73.80;100981.37;113051;1192;22530;-58
2021/10/11 04:58:42;;;;;;;65.30;28.60;;;;;;;-1.26;73.92;100976.75;113016;1192;22489;-56
2021/10/11 05:01:13;;;;;;;68.00;29.60;;;;;;;-1.26;73.90;100967.98;113137;1198;22430;-57
2021/10/11 05:03:44;;;;;;;62.50;26.40;;;;;;;-1.27;73.89;100972.98;113141;1198;22515;-57
2021/10/11 05:06:16;;;;;;;61.40;26.90;;;;;;;-1.28;74.07;100969.30;113080;1198;25776;-58
2021/10/11 05:08:47;;;;;;;59.20;26.10;;;;;;;-1.29;74.01;100972.42;112540;1192;24061;-60
2021/10/11 05:11:18;;;;;;;58.60;25.30;;;;;;;-1.29;74.23;100970.45;112915;1193;25298;-59
2021/10/11 05:13:48;;;;;;;67.20;27.80;;;;;;;-1.26;74.27;100980.89;113153;1192;25295;-60
2021/10/11 05:16:19;;;;;;;68.20;29.00;;;;;;;-1.24;74.27;100981.38;112895;1198;24087;-59
2021/10/11 05:18:50;;;;;;;65.00;29.90;;;;;;;-1.24;74.27;100973.77;112964;1193;22985;-58
2021/10/11 05:21:22;;;;;;;58.40;25.90;;;;;;;-1.24;74.16;100972.77;113199;1193;24184;-59
2021/10/11 05:23:53;;;;;;;62.30;25.90;;;;;;;-1.25;74.10;100977.86;113021;1198;25874;-59
2021/10/11 05:26:26;;;;;;;59.80;27.30;;;;;;;-1.25;74.21;100975.73;113112;1198;22560;-59
2021/10/11 05:28:56;;;;;;;64.70;27.30;;;;;;;-1.25;74.10;100977.93;112855;1192;22568;-59
2021/10/11 05:31:28;;;;;;;73.80;29.00;;;;;;;-1.25;74.23;100975.34;113027;1192;22504;-59
2021/10/11 05:33:59;;;;;;;71.50;30.70;;;;;;;-1.25;74.32;100970.48;113326;1199;23008;-58
2021/10/11 05:36:32;;;;;;;84.30;36.90;;;;;;;-1.25;74.49;100957.73;113144;1199;24000;-59
2021/10/11 05:39:04;;;;;;;87.00;39.70;;;;;;;-1.24;74.64;100956.41;113072;1198;22521;-59
2021/10/11 05:41:35;;;;;;;84.00;38.10;;;;;;;-1.21;74.80;100951.73;112974;1199;22587;-56
2021/10/11 05:44:07;;;;;;;83.30;39.80;;;;;;;-1.18;74.97;100950.56;113027;1193;25245;-58
2021/10/11 05:46:38;;;;;;;83.40;37.60;;;;;;;-1.16;75.11;100944.71;113143;1192;22613;-59
2021/10/11 05:49:09;;;;;;;87.40;37.90;;;;;;;-1.11;75.20;100946.01;113248;1198;24124;-60
2021/10/11 05:51:40;;;;;;;82.00;36.70;;;;;;;-1.08;75.24;100947.26;113068;1198;25310;-60
2021/10/11 05:54:11;;;;;;;81.80;38.80;;;;;;;-1.04;75.44;100950.10;112917;1192;22527;-60
2021/10/11 05:56:42;;;;;;;74.80;35.30;;;;;;;-1.02;75.39;100951.36;112961;1199;22557;-60
2021/10/11 05:59:13;;;;;;;80.60;37.30;;;;;;;-1.01;75.39;100954.42;112982;1198;22569;-60
2021/10/11 06:01:44;;;;;;;81.50;37.20;;;;;;;-0.99;75.44;100947.15;112667;1195;25296;-58
2021/10/11 06:04:29;;;;;;;81.00;36.50;;;;;;;-0.99;75.56;100943.79;112841;1192;24054;-59
2021/10/11 06:07:20;;;;;;;76.60;36.20;;;;;;;-0.97;75.76;100951.94;112830;1192;24151;-58
2021/10/11 06:09:54;;;;;;;79.40;35.60;;;;;;;-0.95;75.74;100952.73;112971;1198;22496;-58
2021/10/11 06:12:25;;;;;;;75.30;33.90;;;;;;;-0.92;75.90;100951.65;113189;1198;25180;-59
2021/10/11 06:14:56;;;;;;;83.50;37.00;;;;;;;-0.89;75.94;100953.31;113680;1176;25411;-65
2021/10/11 06:17:27;;;;;;;81.10;38.00;;;;;;;-0.86;75.90;100957.48;113038;1198;24026;-63
2021/10/11 06:19:58;;;;;;;85.10;37.60;;;;;;;-0.80;76.03;100955.48;113046;1197;22496;-63
2021/10/11 06:22:29;;;;;;;82.90;38.70;;;;;;;-0.77;76.12;100948.67;113009;1183;25296;-63
2021/10/11 06:25:00;;;;;;;82.30;38.50;;;;;;;-0.73;76.10;100948.45;117217;1197;22212;-63
2021/10/11 06:27:31;;;;;;;77.40;34.50;;;;;;;-0.69;76.33;100951.13;116836;1198;22503;-63
2021/10/11 06:30:03;;;;;;;75.20;36.60;;;;;;;-0.63;76.27;100946.52;114051;1198;22505;-63
2021/10/11 06:32:34;;;;;;;78.70;36.70;;;;;;;-0.57;76.47;100946.77;113246;1198;22498;-63
2021/10/11 06:35:06;;;;;;;88.50;40.50;;;;;;;-0.53;76.68;100945.08;113043;1198;22481;-64
2021/10/11 06:37:38;;;;;;;86.00;43.40;;;;;;;-0.47;76.61;100946.75;113067;1191;26659;-63
2021/10/11 06:40:10;;;;;;;95.80;45.90;;;;;;;-0.41;76.77;100948.09;113238;1190;25359;-63
2021/10/11 06:42:41;;;;;;;91.90;43.10;;;;;;;-0.35;77.05;100951.24;113194;1192;24061;-64
2021/10/11 06:45:14;;;;;;;93.30;48.50;;;;;;;-0.29;77.12;100944.60;113291;1198;22544;-63
2021/10/11 06:47:46;;;;;;;125.60;57.50;;;;;;;-0.22;77.36;100941.64;113122;1198;25330;-63
2021/10/11 06:50:17;;;;;;;127.40;59.30;;;;;;;-0.14;77.47;100939.14;113204;1198;22479;-63
2021/10/11 06:52:49;;;;;;;131.60;63.20;;;;;;;-0.07;77.57;100937.48;113078;1198;22575;-63
2021/10/11 06:55:20;;;;;;;123.70;60.00;;;;;;;0.00;77.65;100936.02;113033;1183;24120;-63
2021/10/11 06:57:51;;;;;;;128.20;57.90;;;;;;;0.08;77.96;100939.63;113189;1198;22867;-64
2021/10/11 07:00:22;;;;;;;117.90;54.20;;;;;;;0.16;78.10;100944.34;113057;1198;22608;-64
2021/10/11 07:02:53;;;;;;;106.60;50.80;;;;;;;0.25;78.47;100942.08;113113;1198;22479;-65
2021/10/11 07:05:25;;;;;;;103.90;50.10;;;;;;;0.35;78.89;100943.48;113093;1198;24190;-63
2021/10/11 07:07:58;;;;;;;114.10;52.60;;;;;;;0.46;78.90;100941.67;113490;1197;25224;-63
2021/10/11 07:10:29;;;;;;;106.00;51.40;;;;;;;0.55;78.96;100949.67;113440;1191;22492;-64
2021/10/11 07:13:02;;;;;;;116.60;50.40;;;;;;;0.67;79.32;100950.52;113373;1198;26590;-63
2021/10/11 07:15:33;;;;;;;116.50;56.60;;;;;;;0.79;79.19;100946.17;113208;1198;22523;-63
2021/10/11 07:18:05;;;;;;;110.20;53.50;;;;;;;0.91;79.43;100948.83;113244;1198;25283;-63
2021/10/11 07:20:39;;;;;;;104.00;49.70;;;;;;;1.03;79.38;100951.23;113051;1198;22581;-63
2021/10/11 07:23:11;;;;;;;98.40;49.60;;;;;;;1.15;79.43;100945.14;113032;1183;25266;-63
2021/10/11 07:25:42;;;;;;;87.90;43.70;;;;;;;1.28;79.78;100944.14;113102;1198;25349;-63
2021/10/11 07:28:13;;;;;;;89.50;41.90;;;;;;;1.41;79.61;100942.83;112999;1193;22533;-63
2021/10/11 07:30:44;;;;;;;83.40;40.80;;;;;;;1.55;80.05;100943.00;113022;1198;24066;-63
2021/10/11 07:33:15;;;;;;;87.10;40.50;;;;;;;1.68;79.71;100939.24;113262;1192;22643;-63
2021/10/11 07:35:44;;;;;;;;;;;;;;;1.78;79.83;100939.81;113119;1198;22464;-63
2021/10/11 07:38:17;;;;;;;71.50;35.20;;;;;;;1.87;79.98;100939.69;113058;1198;22579;-63
2021/10/11 07:40:48;;;;;;;77.50;36.80;;;;;;;1.98;80.15;100933.62;113096;1198;26330;-63
2021/10/11 07:43:19;;;;;;;79.50;34.30;;;;;;;2.10;80.31;100937.30;113590;1198;25190;-64
2021/10/11 07:45:50;;;;;;;70.70;34.90;;;;;;;2.23;80.23;100937.92;113391;1198;24031;-63
2021/10/11 07:48:21;;;;;;;79.80;35.70;;;;;;;2.35;80.53;100933.48;113129;1190;22636;-61
2021/10/11 07:50:52;;;;;;;74.60;34.10;;;;;;;2.51;80.65;100932.48;113204;1198;25157;-63
2021/10/11 07:53:22;;;;;;;69.70;29.70;;;;;;;2.66;80.45;100936.21;113103;1198;22434;-64
2021/10/11 07:55:55;;;;;;;71.00;32.50;;;;;;;2.75;80.15;100936.42;113073;1198;22434;-63
2021/10/11 07:58:26;;;;;;;69.10;33.00;;;;;;;2.88;80.61;100933.54;113317;1198;22767;-63
2021/10/11 08:00:57;;;;;;;82.70;34.80;;;;;;;3.05;80.52;100924.67;113512;1191;22429;-63
2021/10/11 08:03:28;;;;;;;69.60;32.40;;;;;;;3.16;80.42;100923.86;113163;1198;25611;-63
2021/10/11 08:06:03;;;;;;;73.50;33.00;;;;;;;3.30;80.47;100926.68;113132;1198;25139;-63
2021/10/11 08:08:36;;;;;;;65.60;31.30;;;;;;;3.49;80.62;100928.64;113294;1197;24059;-66
2021/10/11 08:11:07;;;;;;;64.30;31.50;;;;;;;3.71;80.66;100926.91;113163;1198;22483;-64
2021/10/11 08:13:38;;;;;;;59.90;28.30;;;;;;;3.91;80.50;100923.70;113101;1198;25296;-63
2021/10/11 08:16:10;;;;;;;59.20;29.30;;;;;;;4.12;80.15;100915.02;112965;1198;25104;-63
2021/10/11 08:18:41;;;;;;;63.40;29.50;;;;;;;4.29;79.84;100914.66;113046;1198;26459;-63
2021/10/11 08:21:12;;;;;;;64.00;26.00;;;;;;;4.48;79.86;100917.11;113066;1198;22436;-63
2021/10/11 08:23:44;;;;;;;48.50;21.80;;;;;;;4.70;79.32;100917.41;113121;1198;22448;-63
2021/10/11 08:26:15;;;;;;;45.20;20.30;;;;;;;4.90;78.96;100917.61;113109;1198;22444;-63
2021/10/11 08:28:46;;;;;;;47.50;20.20;;;;;;;5.12;78.61;100918.69;112807;1192;25237;-63
2021/10/11 08:31:16;;;;;;;52.10;21.20;;;;;;;5.31;78.39;100923.35;113113;1192;22533;-63
2021/10/11 08:33:47;;;;;;;44.20;19.30;;;;;;;5.48;78.16;100922.99;113192;1198;24995;-63
2021/10/11 08:36:18;;;;;;;47.40;17.50;;;;;;;5.67;77.80;100920.37;113084;1198;22602;-64
2021/10/11 08:38:49;;;;;;;49.20;19.30;;;;;;;5.83;77.51;100918.67;113080;1198;22429;-64
2021/10/11 08:41:21;;;;;;;43.10;19.50;;;;;;;5.97;77.17;100918.13;113285;1198;25118;-62
2021/10/11 08:43:52;;;;;;;42.90;18.20;;;;;;;6.12;77.45;100915.48;113275;1192;22449;-62
2021/10/11 08:46:24;;;;;;;39.00;16.00;;;;;;;6.29;77.06;100916.56;113285;1198;22441;-62
2021/10/11 08:48:55;;;;;;;40.90;17.60;;;;;;;6.42;76.61;100915.83;113353;1198;25083;-63
2021/10/11 08:51:28;;;;;;;43.10;17.40;;;;;;;6.51;76.50;100913.49;113321;1198;22517;-64
2021/10/11 08:53:59;;;;;;;39.20;16.70;;;;;;;6.56;76.39;100910.26;113165;1198;24998;-63
2021/10/11 08:56:32;;;;;;;42.50;16.10;;;;;;;6.66;76.26;100911.13;113164;1198;25081;-63
2021/10/11 08:59:03;;;;;;;40.70;15.20;;;;;;;6.76;75.71;100908.64;113130;1198;25572;-63
2021/10/11 09:01:34;;;;;;;41.30;16.70;;;;;;;6.85;75.49;100910.52;113128;1190;22431;-63
2021/10/11 09:04:15;;;;;;;41.00;16.40;;;;;;;6.96;75.37;100913.71;113237;1190;22435;-63
2021/10/11 09:07:04;;;;;;;34.20;14.50;;;;;;;7.08;75.05;100910.05;113209;1190;22453;-64
2021/10/11 09:09:40;;;;;;;39.50;16.50;;;;;;;7.20;74.80;100908.20;113240;1198;22459;-63
2021/10/11 09:12:19;;;;;;;39.70;15.70;;;;;;;7.32;74.59;100908.02;113235;1193;23257;-62
2021/10/11 09:15:04;;;;;;;34.60;15.60;;;;;;;7.46;74.19;100905.47;113405;1198;24056;-63
2021/10/11 09:17:38;;;;;;;37.50;14.30;;;;;;;7.58;73.91;100906.37;113179;1198;23706;-62
2021/10/11 09:20:14;;;;;;;37.50;15.00;;;;;;;7.71;73.74;100896.77;113281;1198;24169;-63
2021/10/11 09:22:47;;;;;;;34.50;14.50;;;;;;;7.87;73.66;100889.34;113518;1198;24994;-62
2021/10/11 09:25:19;;;;;;;35.40;15.00;;;;;;;8.03;73.35;100887.11;113344;1190;22463;-62
2021/10/11 09:27:54;;;;;;;36.80;14.50;;;;;;;8.15;72.88;100882.89;113180;1198;22606;-62
2021/10/11 09:30:29;;;;;;;33.00;13.60;;;;;;;8.29;72.79;100881.52;113357;1198;22501;-63
2021/10/11 09:33:10;;;;;;;40.00;15.00;;;;;;;8.40;72.70;100878.67;113301;1198;23109;-63
2021/10/11 09:35:43;;;;;;;33.80;13.50;;;;;;;8.54;72.37;100874.54;113657;1198;24498;-63
2021/10/11 09:38:22;;;;;;;37.40;14.50;;;;;;;8.67;72.13;100872.55;113335;1198;25092;-62
2021/10/11 09:40:56;;;;;;;37.80;15.50;;;;;;;8.77;71.49;100866.33;113221;1192;24071;-62
2021/10/11 09:43:28;;;;;;;35.50;14.10;;;;;;;8.87;71.15;100865.00;113139;1198;22610;-62
2021/10/11 09:46:10;;;;;;;32.30;13.40;;;;;;;9.01;71.30;100852.00;113086;1198;23146;-63
2021/10/11 09:48:51;;;;;;;30.50;11.50;;;;;;;9.19;70.95;100851.91;113051;1190;25282;-62
2021/10/11 09:51:24;;;;;;;34.10;12.70;;;;;;;9.35;70.36;100845.23;113182;1198;22451;-62
2021/10/11 09:53:57;;;;;;;32.70;12.50;;;;;;;9.48;69.87;100850.55;113255;1198;22433;-64
2021/10/11 09:56:29;;;;;;;30.40;12.60;;;;;;;9.63;69.49;100850.75;113072;1198;22453;-64
2021/10/11 09:59:00;;;;;;;31.70;12.20;;;;;;;9.76;69.12;100843.94;113189;1198;22447;-64
2021/10/11 10:01:32;;;;;;;31.00;13.30;;;;;;;9.92;68.74;100838.19;113078;1198;24016;-64
2021/10/11 10:04:05;;;;;;;30.20;12.50;;;;;;;10.03;68.92;100838.46;113211;1198;22409;-62
2021/10/11 10:06:36;;;;;;;26.90;10.90;;;;;;;10.14;68.31;100839.17;113135;1193;22532;-63
2021/10/11 10:09:09;;;;;;;26.70;11.10;;;;;;;10.24;68.10;100834.98;113132;1199;22963;-63
2021/10/11 10:11:41;;;;;;;30.20;11.60;;;;;;;10.33;67.91;100830.88;113118;1198;22453;-63
2021/10/11 10:14:22;;;;;;;28.90;10.20;;;;;;;10.42;67.11;100827.66;113160;1198;22420;-63
2021/10/11 10:16:54;;;;;;;26.70;11.10;;;;;;;10.52;66.85;100821.49;113227;1198;22442;-62
2021/10/11 10:19:36;;;;;;;28.20;11.40;;;;;;;10.58;66.42;100815.01;113174;1198;24077;-63
2021/10/11 10:22:24;;;;;;;27.10;8.70;;;;;;;10.67;66.28;100810.98;113021;1199;24450;-62
2021/10/11 10:25:06;;;;;;;26.10;9.70;;;;;;;10.78;66.20;100814.13;113233;1193;25128;-62
2021/10/11 10:27:40;;;;;;;22.70;8.60;;;;;;;10.90;66.10;100807.55;113529;1193;23817;-64
2021/10/11 10:30:19;;;;;;;24.50;9.20;;;;;;;11.05;65.09;100805.26;113233;1198;25873;-63
2021/10/11 10:33:02;;;;;;;23.80;9.00;;;;;;;11.17;64.75;100800.78;113089;1199;23001;-63
2021/10/11 10:35:38;;;;;;;19.70;8.40;;;;;;;11.26;64.09;100792.21;113202;1198;25425;-63
2021/10/11 10:38:20;;;;;;;23.40;8.60;;;;;;;11.37;63.96;100786.27;112743;1199;22463;-63
2021/10/11 10:40:51;;;;;;;26.80;8.30;;;;;;;11.46;63.58;100786.26;113074;1193;22445;-63
2021/10/11 10:43:22;;;;;;;45.90;20.70;;;;;;;11.53;63.65;100787.49;112960;1198;22445;-63
2021/10/11 10:45:53;;;;;;;31.50;11.90;;;;;;;11.61;63.61;100780.40;112927;1199;25103;-63
2021/10/11 10:48:26;;;;;;;22.70;8.00;;;;;;;11.70;63.20;100776.95;112934;1193;22517;-63
2021/10/11 10:51:03;;;;;;;21.90;7.60;;;;;;;11.76;62.74;100776.38;112897;1199;25219;-63
2021/10/11 10:53:34;;;;;;;23.80;8.40;;;;;;;11.82;62.25;100770.45;113102;1199;22441;-63
2021/10/11 10:56:11;;;;;;;21.40;7.50;;;;;;;11.87;62.64;100766.55;113006;1199;25126;-63
2021/10/11 10:58:43;;;;;;;21.00;7.40;;;;;;;11.93;62.23;100762.91;112857;1199;22448;-63
2021/10/11 11:01:14;;;;;;;23.40;8.20;;;;;;;11.96;62.28;100759.73;112925;1199;25108;-63
2021/10/11 11:03:46;;;;;;;26.40;7.50;;;;;;;12.00;62.05;100753.39;113018;1197;22834;-63
2021/10/11 11:06:26;;;;;;;23.00;6.40;;;;;;;12.04;61.64;100752.93;112973;1198;24040;-63
2021/10/11 11:09:00;;;;;;;16.20;6.10;;;;;;;12.07;60.89;100753.15;112989;1198;24038;-62
2021/10/11 11:11:31;;;;;;;18.70;6.00;;;;;;;12.08;60.45;100752.86;113123;1199;25130;-62
2021/10/11 11:14:02;;;;;;;17.10;6.00;;;;;;;12.09;60.40;100745.70;113145;1199;24098;-62
2021/10/11 11:16:34;;;;;;;17.00;5.80;;;;;;;12.12;60.07;100740.27;112970;1198;22434;-62
2021/10/11 11:19:08;;;;;;;18.60;5.70;;;;;;;12.14;60.23;100742.66;113057;1198;23504;-62
2021/10/11 11:21:40;;;;;;;21.30;7.10;;;;;;;12.17;60.26;100742.58;113036;1193;22566;-62
2021/10/11 11:24:11;;;;;;;23.60;8.20;;;;;;;12.23;60.31;100742.88;112944;1198;24992;-63
2021/10/11 11:26:48;;;;;;;24.60;8.30;;;;;;;12.26;59.81;100740.29;113109;1198;25114;-62
2021/10/11 11:29:19;;;;;;;21.10;6.40;;;;;;;12.29;59.82;100739.84;113204;1198;22802;-62